Time;durP1;ratioP1;P1;durP2;ratioP2;P2;SDS_P1;SDS_P2;PMS_P1;PMS_P2;Temp;Humidity;BMP_temperature;BMP_pressure;BME280_temperature;BME280_humidity;BME280_pressure;Samples;Min_cycle;Max_cycle;Signal;HPM_P1;HPM_P2
2022/11/29 00:00:33;;;;;;;124.93;19.38;;;7.80;99.90;;;;;;4995037;28;20085;-77
2022/11/29 00:02:59;;;;;;;135.55;20.08;;;7.80;99.90;;;;;;4995253;28;20151;-77
2022/11/29 00:05:24;;;;;;;311.05;24.50;;;7.90;99.90;;;;;;5012727;28;20120;-77
2022/11/29 00:07:50;;;;;;;91.28;18.35;;;7.90;99.90;;;;;;5013237;28;20041;-76
2022/11/29 00:10:15;;;;;;;87.30;18.90;;;7.80;99.90;;;;;;4995144;28;20129;-75
2022/11/29 00:12:41;;;;;;;115.95;18.25;;;7.80;99.90;;;;;;5012631;28;20053;-77
2022/11/29 00:15:07;;;;;;;187.02;20.25;;;7.80;99.90;;;;;;5012401;28;20509;-76
2022/11/29 00:17:33;;;;;;;87.18;20.15;;;7.80;99.90;;;;;;5012892;28;20046;-76
2022/11/29 00:19:58;;;;;;;122.50;19.23;;;7.80;99.90;;;;;;5012431;28;20064;-77
2022/11/29 00:22:24;;;;;;;74.53;19.27;;;8.20;99.90;;;;;;5012755;28;20130;-76
2022/11/29 00:24:53;;;;;;;70.78;19.42;;;7.80;99.90;;;;;;5012411;28;20050;-76
2022/11/29 00:27:18;;;;;;;170.98;21.85;;;7.80;99.90;;;;;;5012955;28;20052;-76
2022/11/29 00:29:44;;;;;;;80.03;20.00;;;7.80;99.90;;;;;;5012432;28;20547;-77
2022/11/29 00:32:10;;;;;;;174.55;21.65;;;7.80;99.90;;;;;;5012005;28;20041;-75
2022/11/29 00:34:36;;;;;;;124.60;18.92;;;7.80;99.90;;;;;;4994772;28;20393;-76
2022/11/29 00:37:01;;;;;;;140.15;21.40;;;7.80;99.90;;;;;;5012215;28;20046;-75
2022/11/29 00:39:27;;;;;;;125.95;20.33;;;7.80;99.90;;;;;;4995268;28;20116;-76
2022/11/29 00:41:53;;;;;;;221.75;23.45;;;7.70;99.90;;;;;;5012114;28;20115;-75
2022/11/29 00:44:19;;;;;;;141.75;19.65;;;7.70;99.90;;;;;;5011948;28;20100;-75
2022/11/29 00:46:45;;;;;;;169.40;21.58;;;7.70;99.90;;;;;;5011649;28;20046;-76
2022/11/29 00:49:10;;;;;;;148.45;20.55;;;7.70;99.90;;;;;;5009204;28;20414;-76
2022/11/29 00:51:36;;;;;;;170.45;19.77;;;7.70;99.90;;;;;;5031288;28;20046;-75
2022/11/29 00:54:02;;;;;;;105.25;19.02;;;7.70;99.90;;;;;;5031856;28;20034;-76
2022/11/29 00:56:27;;;;;;;151.38;20.67;;;7.70;99.90;;;;;;5029301;28;20056;-76
2022/11/29 00:58:53;;;;;;;148.10;20.92;;;7.70;99.90;;;;;;5031751;28;20476;-76
2022/11/29 01:01:19;;;;;;;65.15;17.73;;;7.70;99.90;;;;;;5031079;28;20053;-77
2022/11/29 01:03:44;;;;;;;128.95;20.75;;;7.60;99.90;;;;;;5028750;28;20120;-76
2022/11/29 01:06:12;;;;;;;73.18;18.08;;;7.60;99.90;;;;;;5013612;28;20049;-75
2022/11/29 01:08:38;;;;;;;159.20;19.92;;;7.60;99.90;;;;;;5031465;28;20172;-76
2022/11/29 01:11:15;;;;;;;177.88;20.38;;;7.60;99.90;;;;;;5031539;28;20128;-75
2022/11/29 01:13:41;;;;;;;93.13;18.17;;;7.50;99.90;;;;;;5030383;28;20045;-76
2022/11/29 01:16:07;;;;;;;99.55;18.38;;;7.50;99.90;;;;;;5029998;28;20057;-76
2022/11/29 01:18:34;;;;;;;81.72;18.77;;;7.50;99.90;;;;;;5013042;28;20056;-76
2022/11/29 01:21:09;;;;;;;134.38;18.95;;;7.50;99.90;;;;;;5029090;28;20072;-76
2022/11/29 01:23:36;;;;;;;106.72;18.85;;;7.50;99.90;;;;;;5013048;28;20061;-76
2022/11/29 01:26:05;;;;;;;90.47;18.88;;;7.50;99.90;;;;;;5013355;28;20061;-76
2022/11/29 01:28:30;;;;;;;77.60;17.65;;;7.70;99.90;;;;;;5031332;28;20053;-76
2022/11/29 01:30:56;;;;;;;144.68;19.95;;;7.50;99.90;;;;;;5013377;28;20056;-76
2022/11/29 01:33:22;;;;;;;147.75;17.77;;;7.50;99.90;;;;;;5028397;28;20049;-76
2022/11/29 01:35:50;;;;;;;116.63;17.60;;;7.40;99.90;;;;;;5031178;28;20041;-76
2022/11/29 01:38:16;;;;;;;45.90;15.98;;;7.80;99.90;;;;;;5030285;28;20586;-76
2022/11/29 01:40:42;;;;;;;76.22;16.92;;;7.40;99.90;;;;;;5030815;28;20052;-76
2022/11/29 01:43:16;;;;;;;108.80;17.15;;;7.40;99.90;;;;;;5028655;28;20073;-76
2022/11/29 01:45:42;;;;;;;91.75;16.77;;;7.40;99.90;;;;;;5030351;28;20042;-76
2022/11/29 01:48:08;;;;;;;145.63;19.48;;;7.40;99.90;;;;;;5012776;28;20524;-76
2022/11/29 01:50:34;;;;;;;68.53;16.90;;;7.80;99.90;;;;;;5030656;28;20077;-76
2022/11/29 01:52:59;;;;;;;75.88;17.35;;;7.30;99.90;;;;;;5028257;28;20069;-76
2022/11/29 01:55:25;;;;;;;52.28;15.90;;;7.30;99.90;;;;;;5030741;28;20054;-76
2022/11/29 01:57:51;;;;;;;58.45;16.85;;;7.30;99.90;;;;;;5030639;28;20042;-76
2022/11/29 02:00:18;;;;;;;59.10;16.13;;;7.30;99.90;;;;;;5030527;28;20045;-77
2022/11/29 02:02:54;;;;;;;69.82;18.27;;;7.30;99.90;;;;;;5030525;28;20120;-77
2022/11/29 02:05:22;;;;;;;60.15;17.30;;;7.30;99.90;;;;;;5010476;28;20057;-77
2022/11/29 02:07:52;;;;;;;47.53;17.85;;;7.30;99.90;;;;;;5030398;28;20045;-77
2022/11/29 02:10:18;;;;;;;49.10;16.63;;;7.30;99.90;;;;;;5012716;28;20052;-77
2022/11/29 02:12:57;;;;;;;43.83;16.73;;;7.30;99.90;;;;;;5029997;28;20049;-76
2022/11/29 02:15:49;;;;;;;50.40;18.40;;;7.30;99.90;;;;;;5027637;28;20048;-76
2022/11/29 02:18:26;;;;;;;50.03;17.50;;;7.30;99.90;;;;;;5030565;28;20041;-76
2022/11/29 02:21:37;;;;;;;41.33;17.60;;;7.20;99.90;;;;;;5012588;28;20049;-76
2022/11/29 02:24:21;;;;;;;35.75;15.52;;;7.20;99.90;;;;;;5030192;28;20045;-76
2022/11/29 02:27:09;;;;;;;60.97;17.67;;;7.20;99.90;;;;;;5027537;28;20042;-76
2022/11/29 02:29:50;;;;;;;53.17;16.60;;;7.20;99.90;;;;;;5012217;28;20124;-76
2022/11/29 02:33:03;;;;;;;50.60;16.55;;;7.20;99.90;;;;;;5030311;28;20454;-75
2022/11/29 02:36:00;;;;;;;65.85;17.40;;;7.10;99.90;;;;;;5014049;28;20504;-76
2022/11/29 02:39:05;;;;;;;49.55;17.45;;;7.10;99.90;;;;;;5029341;28;20080;-76
2022/11/29 02:41:49;;;;;;;40.47;16.97;;;7.10;99.90;;;;;;5029918;28;20046;-76
2022/11/29 02:45:05;;;;;;;72.80;18.08;;;7.10;99.90;;;;;;5021203;28;20045;-76
2022/11/29 02:47:49;;;;;;;73.05;17.95;;;7.10;99.90;;;;;;4951975;28;20047;-75
2022/11/29 02:50:35;;;;;;;75.47;16.77;;;7.10;99.90;;;;;;4952210;28;20058;-76
2022/11/29 02:53:35;;;;;;;63.72;17.17;;;7.00;99.90;;;;;;4956947;28;20093;-75
2022/11/29 02:56:12;;;;;;;71.35;17.13;;;7.00;99.90;;;;;;4987791;28;20046;-76
2022/11/29 02:59:10;;;;;;;37.35;16.42;;;7.00;99.90;;;;;;4987952;28;20403;-76
2022/11/29 03:02:03;;;;;;;62.83;16.65;;;6.90;99.90;;;;;;4985692;28;20046;-76
2022/11/29 03:04:53;;;;;;;68.03;16.92;;;6.90;99.90;;;;;;4970494;28;20149;-77
2022/11/29 03:07:37;;;;;;;108.53;17.90;;;6.90;99.90;;;;;;4971191;28;20059;-75
2022/11/29 03:10:10;;;;;;;96.35;16.90;;;6.90;99.90;;;;;;4987885;28;20069;-75
2022/11/29 03:12:40;;;;;;;78.00;16.27;;;6.90;99.90;;;;;;4960945;28;20063;-76
2022/11/29 03:15:09;;;;;;;97.68;15.93;;;6.90;99.90;;;;;;4989192;28;20784;-78
2022/11/29 03:18:10;;;;;;;64.90;15.23;;;6.90;99.90;;;;;;4985538;28;20140;-77
2022/11/29 03:20:54;;;;;;;61.85;16.17;;;6.90;99.90;;;;;;4991186;28;20620;-76
2022/11/29 03:23:36;;;;;;;82.97;14.05;;;6.80;99.90;;;;;;4990795;28;20069;-76
2022/11/29 03:26:11;;;;;;;52.53;13.95;;;6.80;99.90;;;;;;4983005;28;20101;-78
2022/11/29 03:28:44;;;;;;;67.13;12.82;;;6.80;99.90;;;;;;4971401;28;20047;-78
2022/11/29 03:31:21;;;;;;;56.88;13.05;;;6.70;99.90;;;;;;4973229;28;20101;-76
2022/11/29 03:33:59;;;;;;;31.25;11.70;;;6.70;99.90;;;;;;4972174;28;20070;-75
2022/11/29 03:36:46;;;;;;;45.03;13.18;;;6.70;99.90;;;;;;4956112;28;20086;-75
2022/11/29 03:39:23;;;;;;;38.33;12.25;;;6.70;99.90;;;;;;4955885;28;20054;-76
2022/11/29 03:41:56;;;;;;;60.33;13.23;;;6.60;99.90;;;;;;4990001;28;20069;-76
2022/11/29 03:44:26;;;;;;;73.10;13.82;;;6.60;99.90;;;;;;4990980;28;20050;-75
2022/11/29 03:47:03;;;;;;;29.45;12.77;;;6.60;99.90;;;;;;4975111;28;20184;-75
2022/11/29 03:49:37;;;;;;;44.00;13.48;;;6.60;99.90;;;;;;4991370;28;20797;-75
2022/11/29 03:52:16;;;;;;;32.20;12.38;;;6.60;99.90;;;;;;4989501;28;20137;-75
2022/11/29 03:55:09;;;;;;;42.13;14.60;;;6.60;99.90;;;;;;5013449;28;20087;-75
2022/11/29 03:58:11;;;;;;;38.47;12.15;;;6.50;99.90;;;;;;5032247;28;20049;-75
2022/11/29 04:00:46;;;;;;;50.25;13.63;;;6.50;99.90;;;;;;5032243;28;20057;-76
2022/11/29 04:03:21;;;;;;;;;;;6.50;99.90;;;;;;5028742;28;20041;-76
2022/11/29 04:05:53;;;;;;;74.50;13.43;;;6.50;99.90;;;;;;5012915;28;20669;-76
2022/11/29 04:08:53;;;;;;;62.30;13.63;;;6.80;99.90;;;;;;5011997;28;20057;-76
2022/11/29 04:11:31;;;;;;;65.72;13.68;;;6.40;99.90;;;;;;5026164;28;20501;-75
2022/11/29 04:14:44;;;;;;;67.00;15.07;;;6.40;99.90;;;;;;5004151;28;20069;-76
2022/11/29 04:17:30;;;;;;;25.23;13.65;;;6.40;99.90;;;;;;4971243;28;20059;-75
2022/11/29 04:20:04;;;;;;;98.85;15.20;;;6.40;99.90;;;;;;4971231;28;20051;-75
2022/11/29 04:22:39;;;;;;;43.20;13.60;;;6.40;99.90;;;;;;4970655;28;20062;-75
2022/11/29 04:25:07;;;;;;;125.07;14.77;;;6.40;99.90;;;;;;4970059;28;20057;-76
2022/11/29 04:28:02;;;;;;;214.07;16.55;;;6.40;99.90;;;;;;4969955;28;20062;-75
2022/11/29 04:30:45;;;;;;;115.18;13.73;;;6.40;99.90;;;;;;4954542;28;20105;-75
2022/11/29 04:33:46;;;;;;;38.22;11.30;;;6.40;99.90;;;;;;4970271;28;20117;-76
2022/11/29 04:36:18;;;;;;;31.88;11.68;;;6.40;99.90;;;;;;4954629;28;20462;-76
2022/11/29 04:39:31;;;;;;;76.47;12.80;;;6.70;99.90;;;;;;4970830;28;20090;-75
2022/11/29 04:42:05;;;;;;;113.28;13.77;;;6.40;99.90;;;;;;4932305;29;20520;-76
2022/11/29 04:44:53;;;;;;;89.70;12.73;;;6.40;99.90;;;;;;4915519;29;20515;-75
2022/11/29 04:47:36;;;;;;;89.60;12.57;;;6.30;99.90;;;;;;4943117;28;20073;-75
2022/11/29 04:50:17;;;;;;;75.65;11.63;;;6.10;99.90;;;;;;4970263;28;20055;-75
2022/11/29 04:53:00;;;;;;;76.57;12.18;;;6.30;99.90;;;;;;4963810;28;20059;-75
2022/11/29 04:56:08;;;;;;;120.32;12.05;;;6.30;99.90;;;;;;4935296;29;20055;-75
2022/11/29 04:58:50;;;;;;;88.90;12.10;;;6.30;99.90;;;;;;4954042;28;20667;-76
2022/11/29 05:01:44;;;;;;;110.88;12.43;;;6.30;99.90;;;;;;4965329;28;20602;-76
2022/11/29 05:04:20;;;;;;;61.60;10.82;;;6.20;99.90;;;;;;4967413;28;20046;-76
2022/11/29 05:07:08;;;;;;;43.58;11.60;;;6.20;99.90;;;;;;4970141;28;20053;-76
2022/11/29 05:10:00;;;;;;;50.95;11.55;;;6.20;99.90;;;;;;4970016;28;20541;-75
2022/11/29 05:12:36;;;;;;;53.38;10.18;;;6.20;99.90;;;;;;4958899;28;20063;-76
2022/11/29 05:15:20;;;;;;;88.78;11.40;;;6.20;99.90;;;;;;4969175;28;20054;-75
2022/11/29 05:18:05;;;;;;;65.38;11.15;;;6.20;99.90;;;;;;4984455;28;20115;-76
2022/11/29 05:21:06;;;;;;;46.13;9.65;;;6.20;99.90;;;;;;5031371;28;20487;-76
2022/11/29 05:23:46;;;;;;;51.30;10.68;;;6.10;99.90;;;;;;4982895;28;20205;-75
2022/11/29 05:26:24;;;;;;;93.80;11.32;;;6.20;99.90;;;;;;4970571;28;20089;-75
2022/11/29 05:29:00;;;;;;;93.00;11.90;;;6.10;99.90;;;;;;4953725;28;20061;-76
2022/11/29 05:31:43;;;;;;;50.42;9.77;;;6.10;99.90;;;;;;4953862;28;20069;-75
2022/11/29 05:34:23;;;;;;;40.72;10.25;;;6.10;99.90;;;;;;4937411;28;20059;-75
2022/11/29 05:37:27;;;;;;;75.43;11.75;;;6.10;99.90;;;;;;4968029;28;20046;-75
2022/11/29 05:40:27;;;;;;;43.50;10.25;;;6.10;99.90;;;;;;4953131;28;20062;-77
2022/11/29 05:43:04;;;;;;;127.35;13.73;;;6.10;99.90;;;;;;4969536;28;20046;-75
2022/11/29 05:46:12;;;;;;;79.90;11.80;;;6.00;99.90;;;;;;4969620;28;20077;-75
2022/11/29 05:49:14;;;;;;;43.92;11.15;;;6.00;99.90;;;;;;4929089;29;20071;-76
2022/11/29 05:51:49;;;;;;;57.78;11.68;;;6.00;99.90;;;;;;4931159;29;20099;-76
2022/11/29 05:54:20;;;;;;;;;;;6.00;99.90;;;;;;4931739;29;20051;-76
2022/11/29 05:57:05;;;;;;;37.35;10.20;;;6.00;99.90;;;;;;4931062;29;20411;-76
2022/11/29 05:59:35;;;;;;;24.02;9.93;;;6.00;99.90;;;;;;4929618;29;20067;-76
2022/11/29 06:02:04;;;;;;;43.63;11.52;;;6.00;99.90;;;;;;4931086;29;20055;-77
2022/11/29 06:04:57;;;;;;;29.38;11.07;;;6.00;99.90;;;;;;4912522;29;20436;-76
2022/11/29 06:08:01;;;;;;;27.65;10.98;;;6.00;99.90;;;;;;4912796;29;20122;-76
2022/11/29 06:10:31;;;;;;;37.83;11.77;;;6.00;99.90;;;;;;4921970;29;20136;-75
2022/11/29 06:13:26;;;;;;;28.85;11.55;;;6.50;99.90;;;;;;4928017;29;20058;-75
2022/11/29 06:16:10;;;;;;;26.55;11.20;;;6.00;99.90;;;;;;4930341;29;20067;-76
2022/11/29 06:19:09;;;;;;;50.95;11.88;;;5.90;99.90;;;;;;4913877;29;20047;-76
2022/11/29 06:22:04;;;;;;;49.53;11.65;;;5.90;99.90;;;;;;4941743;28;20087;-76
2022/11/29 06:24:36;;;;;;;45.05;11.80;;;5.90;99.90;;;;;;5029847;28;20496;-77
2022/11/29 06:27:25;;;;;;;42.25;13.10;;;5.90;99.90;;;;;;5024160;28;20448;-76
2022/11/29 06:30:02;;;;;;;42.90;11.80;;;5.90;99.90;;;;;;5009964;28;20054;-75
2022/11/29 06:32:39;;;;;;;66.13;11.48;;;5.90;99.90;;;;;;5009946;28;20127;-76
2022/11/29 06:35:22;;;;;;;63.08;13.48;;;5.90;99.90;;;;;;4993010;28;20125;-76
2022/11/29 06:37:50;;;;;;;58.65;12.93;;;5.90;99.90;;;;;;5010321;28;20049;-76
2022/11/29 06:40:16;;;;;;;87.90;12.55;;;5.80;99.90;;;;;;5010593;28;20044;-75
2022/11/29 06:42:42;;;;;;;41.28;11.95;;;5.80;99.90;;;;;;4992528;28;20046;-77
2022/11/29 06:45:12;;;;;;;31.15;11.45;;;5.80;99.90;;;;;;5009661;28;20060;-76
2022/11/29 06:47:38;;;;;;;53.80;13.25;;;5.80;99.90;;;;;;5010213;28;20062;-77
2022/11/29 06:50:22;;;;;;;52.50;12.50;;;5.80;99.90;;;;;;4991747;28;20053;-76
2022/11/29 06:52:59;;;;;;;46.30;11.80;;;5.80;99.90;;;;;;5010556;28;20065;-76
2022/11/29 06:56:02;;;;;;;45.60;13.63;;;5.80;99.90;;;;;;5029686;28;20053;-76
2022/11/29 06:58:40;;;;;;;50.60;12.73;;;5.80;99.90;;;;;;5012323;28;20057;-76
2022/11/29 07:01:27;;;;;;;113.95;14.68;;;5.80;99.90;;;;;;5012251;28;20179;-75
2022/11/29 07:04:09;;;;;;;57.20;12.20;;;5.70;99.90;;;;;;5009887;28;20569;-77
2022/11/29 07:06:35;;;;;;;34.28;11.38;;;5.70;99.90;;;;;;4992416;28;20401;-76
2022/11/29 07:09:11;;;;;;;50.13;11.57;;;5.70;99.90;;;;;;4992191;28;20041;-76
2022/11/29 07:11:37;;;;;;;32.65;11.98;;;5.70;99.90;;;;;;5010983;28;20413;-75
2022/11/29 07:14:03;;;;;;;63.47;14.18;;;5.70;99.90;;;;;;4992037;28;20050;-76
2022/11/29 07:16:56;;;;;;;30.45;12.85;;;5.70;99.90;;;;;;5009548;28;20052;-75
2022/11/29 07:19:30;;;;;;;41.50;12.73;;;5.70;99.90;;;;;;5009844;28;20042;-75
2022/11/29 07:22:27;;;;;;;61.88;12.82;;;5.70;99.90;;;;;;4992065;28;20057;-76
2022/11/29 07:25:22;;;;;;;34.53;12.77;;;5.70;99.90;;;;;;5015788;28;20096;-77
2022/11/29 07:28:05;;;;;;;40.00;12.98;;;5.70;99.90;;;;;;5000342;28;20076;-75
2022/11/29 07:31:02;;;;;;;51.30;13.50;;;5.70;99.90;;;;;;5009499;28;20053;-76
2022/11/29 07:33:47;;;;;;;31.50;12.80;;;5.70;99.90;;;;;;4957224;28;20054;-76
2022/11/29 07:36:31;;;;;;;35.85;12.73;;;5.70;99.90;;;;;;4987619;28;20050;-76
2022/11/29 07:39:11;;;;;;;25.77;12.25;;;5.40;99.90;;;;;;4987550;28;20062;-76
2022/11/29 07:42:16;;;;;;;31.33;13.32;;;5.70;99.90;;;;;;4971442;28;20522;-77
2022/11/29 07:44:58;;;;;;;33.95;13.20;;;5.80;99.90;;;;;;4968677;28;20062;-75
2022/11/29 07:47:24;;;;;;;31.88;12.68;;;5.80;99.90;;;;;;4974910;28;20065;-75
2022/11/29 07:49:50;;;;;;;30.52;13.30;;;5.80;99.90;;;;;;4971909;28;20058;-78
2022/11/29 07:52:16;;;;;;;32.90;12.00;;;5.80;99.90;;;;;;4968217;28;20079;-77
2022/11/29 07:54:42;;;;;;;35.90;12.82;;;5.80;99.90;;;;;;4968090;28;20486;-77
2022/11/29 07:57:08;;;;;;;26.65;11.95;;;5.70;99.90;;;;;;4967902;28;20125;-76
2022/11/29 07:59:33;;;;;;;33.10;13.02;;;5.80;99.90;;;;;;4968377;28;20565;-76
2022/11/29 08:01:59;;;;;;;25.00;12.82;;;5.70;99.90;;;;;;4983979;28;20060;-76
2022/11/29 08:04:24;;;;;;;31.63;12.68;;;6.00;99.90;;;;;;4990623;28;20410;-75
2022/11/29 08:06:50;;;;;;;30.40;11.75;;;5.70;99.90;;;;;;4990864;28;20050;-77
2022/11/29 08:09:16;;;;;;;28.27;12.80;;;5.80;99.90;;;;;;4974604;28;20054;-77
2022/11/29 08:11:41;;;;;;;28.73;11.98;;;5.80;99.90;;;;;;5001644;28;20108;-77
2022/11/29 08:14:07;;;;;;;32.30;12.90;;;5.80;99.90;;;;;;4993985;28;20689;-76
2022/11/29 08:16:33;;;;;;;30.70;12.07;;;5.80;99.90;;;;;;4992947;28;20140;-76
2022/11/29 08:18:59;;;;;;;26.35;11.52;;;5.80;99.90;;;;;;4991407;28;20066;-76
2022/11/29 08:21:24;;;;;;;29.30;11.45;;;5.80;99.90;;;;;;4994216;28;20054;-76
2022/11/29 08:23:50;;;;;;;28.92;13.15;;;5.80;99.90;;;;;;4992926;28;20162;-77
2022/11/29 08:26:17;;;;;;;32.03;13.70;;;5.80;99.90;;;;;;4993142;28;20042;-78
2022/11/29 08:28:42;;;;;;;31.73;11.88;;;5.90;99.90;;;;;;4997592;28;20054;-76
2022/11/29 08:31:10;;;;;;;31.35;12.43;;;5.90;99.90;;;;;;5008787;28;20052;-77
2022/11/29 08:33:41;;;;;;;30.35;11.77;;;5.90;99.90;;;;;;5012220;28;20042;-78
2022/11/29 08:36:16;;;;;;;30.42;12.32;;;6.00;99.90;;;;;;4994947;28;20098;-77
2022/11/29 08:38:42;;;;;;;41.92;13.38;;;6.00;99.90;;;;;;5012466;28;20042;-77
2022/11/29 08:41:11;;;;;;;30.05;12.00;;;6.00;99.90;;;;;;5012607;28;20052;-75
2022/11/29 08:43:36;;;;;;;26.45;11.98;;;6.10;99.90;;;;;;5003754;28;20565;-77
2022/11/29 08:46:02;;;;;;;40.25;13.82;;;6.10;99.90;;;;;;4993112;28;20129;-77
2022/11/29 08:48:28;;;;;;;31.13;12.05;;;6.10;99.90;;;;;;5023470;28;20041;-76
2022/11/29 08:50:55;;;;;;;34.85;13.50;;;6.20;99.90;;;;;;5001317;28;20103;-75
2022/11/29 08:53:40;;;;;;;28.65;12.15;;;6.20;99.90;;;;;;5019171;28;20045;-76
2022/11/29 08:56:10;;;;;;;32.75;12.20;;;6.30;99.90;;;;;;5014309;28;20417;-78
2022/11/29 08:58:37;;;;;;;25.38;11.18;;;6.30;99.90;;;;;;5014101;28;20061;-76
2022/11/29 09:01:03;;;;;;;30.40;11.88;;;6.30;99.90;;;;;;5031301;28;20068;-75
2022/11/29 09:06:16;;;;;;;32.85;11.10;;;6.40;99.90;;;;;;5012216;28;20119;-75
2022/11/29 09:08:42;;;;;;;35.30;11.57;;;6.40;99.90;;;;;;5025028;28;20061;-75
2022/11/29 09:11:12;;;;;;;32.97;10.30;;;6.40;99.90;;;;;;5005571;28;20053;-76
2022/11/29 09:13:43;;;;;;;34.45;11.80;;;6.50;99.90;;;;;;5003992;28;20057;-75
2022/11/29 09:16:11;;;;;;;29.05;11.70;;;6.60;99.90;;;;;;5009008;28;20056;-74
2022/11/29 09:18:38;;;;;;;38.17;11.80;;;6.70;99.90;;;;;;5030474;28;20095;-75
2022/11/29 09:21:28;;;;;;;32.67;12.15;;;6.70;99.90;;;;;;5011392;28;20056;-75
2022/11/29 09:23:58;;;;;;;31.00;12.18;;;6.80;99.90;;;;;;4934720;29;20154;-75
2022/11/29 09:26:26;;;;;;;32.08;12.23;;;6.80;99.90;;;;;;4931323;29;20067;-76
2022/11/29 09:28:53;;;;;;;38.67;11.90;;;6.90;99.90;;;;;;4914847;29;20130;-75
2022/11/29 09:31:20;;;;;;;34.28;11.50;;;7.00;99.90;;;;;;4946586;29;20078;-75
2022/11/29 09:33:47;;;;;;;36.08;11.70;;;7.10;99.90;;;;;;4950748;29;20179;-77
2022/11/29 09:36:13;;;;;;;36.63;11.05;;;7.20;99.90;;;;;;4950210;29;20067;-78
2022/11/29 09:38:39;;;;;;;41.80;11.55;;;7.20;99.90;;;;;;4934673;29;20069;-77
2022/11/29 09:41:20;;;;;;;36.25;10.82;;;7.30;99.90;;;;;;4945672;28;20051;-75
2022/11/29 09:44:12;;;;;;;44.42;12.00;;;7.40;99.90;;;;;;4943842;29;20048;-76
2022/11/29 09:47:08;;;;;;;39.92;11.27;;;7.50;99.90;;;;;;4931491;29;20052;-77
2022/11/29 09:50:11;;;;;;;46.33;12.32;;;7.60;99.90;;;;;;4950584;29;20054;-77
2022/11/29 09:53:01;;;;;;;37.63;10.65;;;7.60;99.90;;;;;;4934184;29;20047;-76
2022/11/29 09:55:56;;;;;;;35.50;11.15;;;7.70;99.90;;;;;;4934294;29;20108;-77
2022/11/29 09:58:27;;;;;;;41.05;10.85;;;7.80;99.90;;;;;;4950213;29;20051;-76
2022/11/29 10:00:58;;;;;;;37.15;10.75;;;7.90;99.90;;;;;;4982443;28;20119;-76
2022/11/29 10:03:40;;;;;;;41.95;10.93;;;7.90;99.90;;;;;;5015608;28;20588;-78
2022/11/29 10:06:29;;;;;;;31.02;10.07;;;8.00;99.90;;;;;;5028815;28;20102;-77
2022/11/29 10:09:21;;;;;;;37.70;9.63;;;8.10;99.90;;;;;;5019174;28;20045;-77
2022/11/29 10:12:05;;;;;;;37.58;10.43;;;8.20;99.90;;;;;;5012160;28;20497;-77
2022/11/29 10:14:45;;;;;;;36.70;9.20;;;8.30;99.90;;;;;;5030355;28;20045;-76
2022/11/29 10:17:37;;;;;;;34.38;9.20;;;8.30;99.90;;;;;;5030371;28;20307;-77
2022/11/29 10:20:22;;;;;;;31.75;9.43;;;8.40;99.90;;;;;;5030230;28;20079;-76
2022/11/29 10:22:55;;;;;;;30.02;8.55;;;8.40;99.90;;;;;;4995994;28;20694;-77
2022/11/29 10:25:33;;;;;;;40.30;9.30;;;8.50;99.90;;;;;;5029788;28;20139;-78
2022/11/29 10:27:59;;;;;;;42.53;9.13;;;8.50;99.90;;;;;;5012880;28;20046;-78
2022/11/29 10:30:25;;;;;;;33.70;9.63;;;8.60;99.90;;;;;;4995277;28;20057;-79
2022/11/29 10:32:56;;;;;;;34.83;9.38;;;8.60;99.90;;;;;;5022567;28;20046;-76
2022/11/29 10:35:22;;;;;;;29.42;9.05;;;8.60;99.90;;;;;;5013008;28;20124;-78
2022/11/29 10:37:51;;;;;;;39.22;9.88;;;8.60;99.90;;;;;;5010666;28;20053;-77
2022/11/29 10:40:21;;;;;;;29.30;9.13;;;8.70;99.90;;;;;;5010607;28;20838;-77
2022/11/29 10:42:47;;;;;;;31.70;9.52;;;8.70;99.90;;;;;;5011457;28;20907;-76
2022/11/29 10:45:27;;;;;;;32.25;9.40;;;8.70;99.90;;;;;;4992533;28;20136;-77
2022/11/29 10:47:57;;;;;;;42.33;9.45;;;8.80;99.90;;;;;;4992545;28;20089;-77
2022/11/29 10:50:26;;;;;;;36.53;9.93;;;8.80;99.90;;;;;;4992866;28;20060;-78
2022/11/29 10:52:56;;;;;;;36.13;9.65;;;8.80;99.90;;;;;;4992271;28;20042;-78
2022/11/29 10:55:22;;;;;;;28.75;8.77;;;8.90;99.90;;;;;;5008837;28;20109;-77
2022/11/29 10:58:07;;;;;;;39.65;9.98;;;8.90;99.90;;;;;;4992680;28;20484;-78
2022/11/29 11:00:45;;;;;;;;;;;9.10;99.90;;;;;;5010429;28;20056;-77
2022/11/29 11:03:30;;;;;;;34.22;9.45;;;8.90;99.90;;;;;;5010055;28;20484;-78
2022/11/29 11:06:01;;;;;;;33.20;9.32;;;9.00;99.90;;;;;;5010813;28;20046;-76
2022/11/29 11:08:27;;;;;;;27.73;9.30;;;9.00;99.90;;;;;;5009792;28;20397;-78
2022/11/29 11:10:54;;;;;;;45.53;10.60;;;9.00;99.90;;;;;;5009739;28;20524;-78
2022/11/29 11:13:26;;;;;;;30.55;9.65;;;9.00;99.90;;;;;;5010043;28;20038;-78
2022/11/29 11:16:16;;;;;;;35.08;9.52;;;9.10;99.90;;;;;;5009958;28;20053;-78
2022/11/29 11:18:42;;;;;;;31.13;9.65;;;9.10;99.90;;;;;;4992207;28;20061;-77
2022/11/29 11:21:13;;;;;;;32.25;11.68;;;9.10;99.90;;;;;;5009744;28;20536;-78
2022/11/29 11:24:19;;;;;;;35.78;11.85;;;9.10;99.90;;;;;;4992412;28;20429;-79
2022/11/29 11:26:45;;;;;;;35.88;11.38;;;9.20;99.90;;;;;;5010030;28;20095;-78
2022/11/29 11:29:24;;;;;;;36.05;11.38;;;9.20;99.90;;;;;;4992304;28;20053;-79
2022/11/29 11:31:54;;;;;;;32.70;10.32;;;9.70;99.90;;;;;;5009988;28;20559;-78
2022/11/29 11:34:34;;;;;;;32.78;11.60;;;9.30;99.90;;;;;;5009875;28;20559;-77
2022/11/29 11:37:22;;;;;;;29.90;11.10;;;9.30;99.90;;;;;;5013642;28;20128;-78
2022/11/29 11:39:51;;;;;;;27.05;11.70;;;9.40;99.90;;;;;;4996228;28;20054;-79
2022/11/29 11:42:36;;;;;;;28.52;11.10;;;9.40;99.90;;;;;;5013806;28;20046;-78
2022/11/29 11:45:29;;;;;;;22.70;10.68;;;9.40;99.90;;;;;;5013694;28;20046;-79
2022/11/29 11:47:58;;;;;;;32.60;11.88;;;9.50;99.90;;;;;;4988796;28;20078;-79
2022/11/29 11:50:27;;;;;;;28.92;11.82;;;9.50;99.90;;;;;;5013304;28;20089;-79
2022/11/29 11:52:56;;;;;;;28.98;11.40;;;9.50;99.90;;;;;;4995451;28;20050;-79
2022/11/29 11:55:41;;;;;;;25.60;12.55;;;9.50;99.90;;;;;;5012900;28;20050;-79
2022/11/29 11:58:13;;;;;;;28.70;12.13;;;9.60;99.90;;;;;;4995538;28;20054;-79
2022/11/29 12:00:43;;;;;;;22.65;12.32;;;9.50;99.90;;;;;;4995576;28;20050;-77
2022/11/29 12:03:27;;;;;;;22.40;11.38;;;9.50;99.90;;;;;;4979219;28;20149;-78
2022/11/29 12:05:59;;;;;;;20.05;11.13;;;9.50;99.90;;;;;;5013030;28;20188;-79
2022/11/29 12:08:28;;;;;;;16.48;10.70;;;9.50;99.90;;;;;;5012894;28;20042;-79
2022/11/29 12:11:00;;;;;;;13.93;9.60;;;9.50;99.90;;;;;;5012598;28;20093;-79
2022/11/29 12:13:31;;;;;;;15.05;9.00;;;9.50;99.90;;;;;;5012866;28;20065;-79
2022/11/29 12:16:02;;;;;;;14.05;9.13;;;9.50;99.90;;;;;;5012656;28;20053;-79
2022/11/29 12:18:45;;;;;;;13.52;8.88;;;9.50;99.90;;;;;;4994489;28;20058;-79
2022/11/29 12:21:19;;;;;;;12.57;8.20;;;9.50;99.90;;;;;;5012684;28;20120;-78
2022/11/29 12:23:52;;;;;;;11.23;7.53;;;9.50;99.90;;;;;;4995045;28;20413;-79
2022/11/29 12:26:20;;;;;;;14.82;7.88;;;9.50;99.90;;;;;;4994696;28;20057;-80
2022/11/29 12:28:46;;;;;;;13.30;8.07;;;9.40;99.90;;;;;;5012348;28;20049;-80
2022/11/29 12:31:40;;;;;;;12.70;8.05;;;9.90;99.90;;;;;;4994794;28;20796;-79
2022/11/29 12:34:12;;;;;;;11.52;6.43;;;9.40;99.90;;;;;;5012568;28;20064;-81
2022/11/29 12:37:08;;;;;;;11.02;6.38;;;9.40;99.90;;;;;;5012463;28;20109;-80
2022/11/29 12:39:49;;;;;;;11.52;6.53;;;9.40;99.90;;;;;;5012347;28;20533;-79
2022/11/29 12:42:52;;;;;;;11.73;5.53;;;9.40;99.90;;;;;;5011911;28;20054;-80
2022/11/29 12:45:39;;;;;;;7.72;4.80;;;9.30;99.90;;;;;;5011927;28;20540;-79
2022/11/29 12:48:33;;;;;;;7.70;5.30;;;9.30;99.90;;;;;;5011473;28;20088;-79
2022/11/29 12:51:14;;;;;;;9.18;5.20;;;9.30;99.90;;;;;;5011869;28;20049;-79
2022/11/29 12:54:03;;;;;;;7.55;5.07;;;9.40;99.90;;;;;;4999847;28;20141;-79
2022/11/29 12:56:48;;;;;;;7.68;4.95;;;9.30;99.90;;;;;;4969720;28;20502;-79
2022/11/29 12:59:47;;;;;;;8.43;4.70;;;9.30;99.90;;;;;;5011696;28;20050;-79
2022/11/29 13:02:51;;;;;;;7.03;4.53;;;9.30;99.90;;;;;;4977359;28;20064;-79
2022/11/29 13:05:28;;;;;;;6.85;4.60;;;9.20;99.90;;;;;;4931727;28;20059;-79
2022/11/29 13:08:15;;;;;;;8.07;4.38;;;9.20;99.90;;;;;;4931760;29;20435;-80
2022/11/29 13:11:04;;;;;;;6.03;4.30;;;9.20;99.90;;;;;;4931281;29;20160;-79
2022/11/29 13:13:41;;;;;;;6.63;4.70;;;9.20;99.90;;;;;;4915601;29;20551;-79
2022/11/29 13:16:26;;;;;;;5.15;3.80;;;9.10;99.90;;;;;;4931489;29;20063;-80
2022/11/29 13:19:13;;;;;;;6.55;4.35;;;9.10;99.90;;;;;;4915594;29;20056;-79
2022/11/29 13:21:54;;;;;;;6.18;4.95;;;9.10;99.90;;;;;;4931092;29;20168;-78
2022/11/29 13:24:36;;;;;;;6.97;5.18;;;9.10;99.90;;;;;;4915460;29;20244;-77
2022/11/29 13:27:04;;;;;;;6.72;4.65;;;9.00;99.90;;;;;;4915767;29;20127;-80
2022/11/29 13:29:30;;;;;;;7.68;5.22;;;9.00;99.90;;;;;;4915032;29;20062;-80
2022/11/29 13:31:56;;;;;;;10.40;5.15;;;9.10;99.90;;;;;;4899724;29;20403;-79